Time;durP1;ratioP1;P1;durP2;ratioP2;P2;SDS_P1;SDS_P2;PMS_P1;PMS_P2;Temp;Humidity;BMP_temperature;BMP_pressure;BME280_temperature;BME280_humidity;BME280_pressure;Samples;Min_cycle;Max_cycle;Signal;HPM_P1;HPM_P2
2022/07/20 00:00:52;;;;;;;5.32;3.67;;;;;;;;;;4831455;29;20054;-82
2022/07/20 00:03:18;;;;;;;4.53;3.55;;;;;;;;;;4844795;29;20081;-81
2022/07/20 00:05:48;;;;;;;8.20;3.38;;;;;;;;;;4828902;29;20037;-81
2022/07/20 00:11:19;;;;;;;7.38;3.60;;;;;;;;;;4828819;29;20421;-82
2022/07/20 00:13:46;;;;;;;5.93;3.28;;;;;;;;;;4846404;29;20049;-83
2022/07/20 00:16:12;;;;;;;6.63;3.80;;;;;;;;;;4826697;29;20113;-78
2022/07/20 00:18:39;;;;;;;4.82;3.78;;;;;;;;;;4826538;29;20034;-80
2022/07/20 00:21:05;;;;;;;6.55;3.35;;;;;;;;;;4842740;29;20036;-83
2022/07/20 00:23:31;;;;;;;7.10;3.83;;;;;;;;;;4842898;29;20136;-79
2022/07/20 00:25:57;;;;;;;5.93;3.55;;;;;;;;;;4842828;29;20029;-82
2022/07/20 00:28:24;;;;;;;3.42;3.08;;;;;;;;;;4829647;29;20030;-83
2022/07/20 00:30:50;;;;;;;8.23;3.60;;;;;;;;;;4828005;29;20052;-80
2022/07/20 00:33:20;;;;;;;5.20;3.65;;;;;;;;;;4829125;29;20467;-82
2022/07/20 00:35:49;;;;;;;5.25;3.80;;;;;;;;;;4829241;29;20458;-82
2022/07/20 00:38:15;;;;;;;6.25;3.40;;;;;;;;;;4829331;29;20030;-82
2022/07/20 00:40:45;;;;;;;4.63;3.30;;;;;;;;;;4828604;29;20121;-81
2022/07/20 00:43:11;;;;;;;8.05;3.50;;;;;;;;;;4828263;29;20133;-82
2022/07/20 00:45:38;;;;;;;5.32;3.45;;;;;;;;;;4828315;29;20026;-82
2022/07/20 00:48:04;;;;;;;4.50;3.38;;;;;;;;;;4828648;29;20030;-84
2022/07/20 00:50:31;;;;;;;7.78;3.80;;;;;;;;;;4828768;29;20434;-82
2022/07/20 00:52:57;;;;;;;6.53;3.42;;;;;;;;;;4828725;29;20384;-84
2022/07/20 00:55:25;;;;;;;6.93;3.70;;;;;;;;;;4828543;29;20437;-80
2022/07/20 00:57:52;;;;;;;7.43;3.40;;;;;;;;;;4833511;29;20393;-84
2022/07/20 01:00:18;;;;;;;5.15;3.30;;;;;;;;;;4828774;29;20053;-81
2022/07/20 01:02:44;;;;;;;6.78;3.97;;;;;;;;;;4827237;29;20087;-81
2022/07/20 01:05:14;;;;;;;8.38;3.45;;;;;;;;;;4828256;29;20041;-82
2022/07/20 01:07:44;;;;;;;6.20;3.80;;;;;;;;;;4828258;29;20083;-82
2022/07/20 01:10:11;;;;;;;6.15;3.60;;;;;;;;;;4828694;29;20083;-82
2022/07/20 01:12:42;;;;;;;6.07;3.33;;;;;;;;;;4827993;29;20029;-82
2022/07/20 01:15:08;;;;;;;4.93;2.95;;;;;;;;;;4829310;29;20438;-82
2022/07/20 01:17:34;;;;;;;6.32;3.45;;;;;;;;;;4830710;29;20049;-79
2022/07/20 01:20:00;;;;;;;5.78;3.30;;;;;;;;;;4846042;29;20030;-81
2022/07/20 01:22:26;;;;;;;5.50;3.35;;;;;;;;;;4829305;29;20026;-82
2022/07/20 01:24:52;;;;;;;4.55;3.85;;;;;;;;;;4845964;29;20037;-80
2022/07/20 01:27:18;;;;;;;6.50;3.83;;;;;;;;;;4845659;29;20026;-82
2022/07/20 01:29:45;;;;;;;3.83;3.10;;;;;;;;;;4845692;29;20389;-82
2022/07/20 01:32:11;;;;;;;6.85;3.60;;;;;;;;;;4829000;29;20057;-82
2022/07/20 01:34:37;;;;;;;5.07;3.88;;;;;;;;;;4828649;29;20038;-81
2022/07/20 01:37:03;;;;;;;8.77;3.70;;;;;;;;;;4829054;29;20022;-81
2022/07/20 01:39:29;;;;;;;6.63;4.25;;;;;;;;;;4828669;29;20033;-82
2022/07/20 01:41:55;;;;;;;5.68;3.58;;;;;;;;;;4845584;29;20034;-80
2022/07/20 01:44:21;;;;;;;5.68;3.40;;;;;;;;;;4828969;29;20125;-81
2022/07/20 01:46:48;;;;;;;5.68;3.38;;;;;;;;;;4828809;29;20034;-82
2022/07/20 01:49:15;;;;;;;5.40;4.00;;;;;;;;;;4845618;29;20026;-81
2022/07/20 01:51:41;;;;;;;5.13;3.70;;;;;;;;;;4829160;29;20033;-79
2022/07/20 01:54:07;;;;;;;4.18;3.45;;;;;;;;;;4828743;29;20567;-80
2022/07/20 01:56:33;;;;;;;4.63;3.60;;;;;;;;;;4828743;29;20034;-83
2022/07/20 01:58:59;;;;;;;4.45;3.42;;;;;;;;;;4845029;29;20038;-77
2022/07/20 02:01:25;;;;;;;5.22;3.60;;;;;;;;;;4828069;29;20041;-80
2022/07/20 02:03:51;;;;;;;5.40;3.97;;;;;;;;;;4828608;29;20129;-78
2022/07/20 02:06:17;;;;;;;5.28;3.40;;;;;;;;;;4845178;29;20022;-78
2022/07/20 02:08:43;;;;;;;4.40;3.50;;;;;;;;;;4828733;29;20029;-81
2022/07/20 02:11:10;;;;;;;6.03;4.10;;;;;;;;;;4828414;29;20042;-81
2022/07/20 02:13:37;;;;;;;5.43;3.80;;;;;;;;;;4828256;29;20082;-81
2022/07/20 02:16:16;;;;;;;10.55;4.30;;;;;;;;;;4828438;29;20033;-81
2022/07/20 02:18:43;;;;;;;3.75;3.25;;;;;;;;;;4844977;29;20120;-80
2022/07/20 02:21:09;;;;;;;4.88;3.92;;;;;;;;;;4844600;29;20046;-77
2022/07/20 02:23:35;;;;;;;6.03;3.63;;;;;;;;;;4827977;29;20150;-80
2022/07/20 02:26:02;;;;;;;5.97;3.72;;;;;;;;;;4844424;29;20068;-82
2022/07/20 02:28:28;;;;;;;4.57;3.58;;;;;;;;;;4828255;29;20125;-81
2022/07/20 02:30:54;;;;;;;7.78;3.75;;;;;;;;;;4830452;29;20038;-82
2022/07/20 02:33:21;;;;;;;5.00;3.60;;;;;;;;;;4830483;29;20404;-81
2022/07/20 02:35:47;;;;;;;6.55;3.55;;;;;;;;;;4830671;29;20034;-82
2022/07/20 02:38:15;;;;;;;6.65;3.65;;;;;;;;;;4831056;29;20142;-82
2022/07/20 02:40:41;;;;;;;5.28;3.83;;;;;;;;;;4834649;29;20022;-82
2022/07/20 02:43:08;;;;;;;6.22;3.85;;;;;;;;;;4831170;29;20038;-82
2022/07/20 02:45:34;;;;;;;4.85;3.78;;;;;;;;;;4830771;29;20440;-80
2022/07/20 02:48:06;;;;;;;8.40;3.63;;;;;;;;;;4830967;29;20030;-82
2022/07/20 02:50:36;;;;;;;7.30;3.58;;;;;;;;;;4831259;29;20030;-81
2022/07/20 02:53:04;;;;;;;6.03;3.78;;;;;;;;;;4830951;29;20030;-82
2022/07/20 02:55:31;;;;;;;5.43;3.88;;;;;;;;;;4829545;29;20034;-81
2022/07/20 02:57:57;;;;;;;3.95;3.55;;;;;;;;;;4829635;29;20098;-82
2022/07/20 03:00:24;;;;;;;5.03;3.65;;;;;;;;;;4830544;29;20049;-80
2022/07/20 03:02:50;;;;;;;10.73;3.83;;;;;;;;;;4829977;29;20392;-81
2022/07/20 03:05:18;;;;;;;6.50;3.85;;;;;;;;;;4829567;29;20034;-81
2022/07/20 03:07:47;;;;;;;9.32;4.25;;;;;;;;;;4829410;29;20125;-81
2022/07/20 03:10:14;;;;;;;10.38;4.07;;;;;;;;;;4829385;29;20113;-82
2022/07/20 03:12:41;;;;;;;6.63;4.25;;;;;;;;;;4829402;29;20034;-81
2022/07/20 03:15:08;;;;;;;5.65;3.97;;;;;;;;;;4830477;29;20180;-81
2022/07/20 03:17:44;;;;;;;5.75;4.53;;;;;;;;;;4859881;29;20022;-81
2022/07/20 03:20:13;;;;;;;7.53;4.30;;;;;;;;;;4843444;29;20093;-81
2022/07/20 03:22:41;;;;;;;5.85;4.07;;;;;;;;;;4843186;29;20037;-81
2022/07/20 03:25:09;;;;;;;5.80;4.00;;;;;;;;;;4843905;29;20034;-81
2022/07/20 03:27:40;;;;;;;6.88;4.03;;;;;;;;;;4859337;29;20396;-80
2022/07/20 03:30:08;;;;;;;8.95;4.38;;;;;;;;;;4843542;29;20033;-82
2022/07/20 03:32:36;;;;;;;7.85;4.78;;;;;;;;;;4843653;29;20509;-81
2022/07/20 03:35:05;;;;;;;5.25;3.95;;;;;;;;;;4842450;29;20034;-81
2022/07/20 03:37:43;;;;;;;6.75;3.83;;;;;;;;;;4840642;29;20025;-81
2022/07/20 03:40:18;;;;;;;6.55;3.90;;;;;;;;;;4840807;29;20059;-81
2022/07/20 03:42:48;;;;;;;9.15;3.92;;;;;;;;;;4842703;29;20037;-81
2022/07/20 03:45:21;;;;;;;5.45;4.38;;;;;;;;;;4840623;29;20454;-81
2022/07/20 03:47:51;;;;;;;5.35;3.95;;;;;;;;;;4841111;29;20030;-81
2022/07/20 03:50:18;;;;;;;6.55;4.20;;;;;;;;;;4841578;29;20116;-81
2022/07/20 03:52:45;;;;;;;7.93;4.63;;;;;;;;;;4840881;29;20070;-81
2022/07/20 03:55:14;;;;;;;10.60;4.32;;;;;;;;;;4854371;29;20022;-81
2022/07/20 03:57:44;;;;;;;6.53;3.97;;;;;;;;;;4842956;29;20045;-81
2022/07/20 04:00:11;;;;;;;8.48;3.92;;;;;;;;;;4843820;29;20038;-81
2022/07/20 04:02:43;;;;;;;5.15;3.70;;;;;;;;;;4865544;29;20075;-81
2022/07/20 04:05:21;;;;;;;7.40;5.05;;;;;;;;;;4848415;29;20042;-81
2022/07/20 04:07:51;;;;;;;11.77;4.75;;;;;;;;;;4847167;29;20034;-81
2022/07/20 04:10:17;;;;;;;7.90;4.72;;;;;;;;;;4843129;29;20030;-81
2022/07/20 04:12:44;;;;;;;6.72;4.30;;;;;;;;;;4842933;29;20029;-82
2022/07/20 04:15:11;;;;;;;11.35;5.13;;;;;;;;;;4841569;29;20053;-81
2022/07/20 04:17:41;;;;;;;5.95;4.30;;;;;;;;;;4845514;29;20054;-81
2022/07/20 04:20:08;;;;;;;7.70;4.38;;;;;;;;;;4845479;29;20357;-81
2022/07/20 04:22:34;;;;;;;8.95;5.18;;;;;;;;;;4828961;29;20120;-81
2022/07/20 04:25:01;;;;;;;7.32;4.88;;;;;;;;;;4829882;29;20030;-81
2022/07/20 04:27:28;;;;;;;8.02;5.40;;;;;;;;;;4827911;29;20422;-81
2022/07/20 04:29:54;;;;;;;12.35;7.05;;;;;;;;;;4829349;29;20446;-81
2022/07/20 04:32:21;;;;;;;17.58;12.73;;;;;;;;;;4830200;29;20089;-81
2022/07/20 04:34:47;;;;;;;9.88;7.40;;;;;;;;;;4828866;29;20385;-81
2022/07/20 04:37:13;;;;;;;8.93;6.63;;;;;;;;;;4828796;29;20404;-82
2022/07/20 04:39:40;;;;;;;9.27;5.32;;;;;;;;;;4832312;29;20366;-81
2022/07/20 04:42:07;;;;;;;7.55;5.00;;;;;;;;;;4829835;29;20408;-81
2022/07/20 04:44:33;;;;;;;9.60;4.85;;;;;;;;;;4829326;29;20852;-82
2022/07/20 04:47:00;;;;;;;10.73;7.60;;;;;;;;;;4828304;29;20495;-82
2022/07/20 04:49:26;;;;;;;11.45;5.47;;;;;;;;;;4830195;29;20033;-79
2022/07/20 04:51:55;;;;;;;6.72;4.85;;;;;;;;;;4834781;29;20121;-80
2022/07/20 04:54:22;;;;;;;8.65;4.80;;;;;;;;;;4837887;29;20034;-81
2022/07/20 04:56:49;;;;;;;10.82;4.85;;;;;;;;;;4837002;29;20705;-80
2022/07/20 04:59:16;;;;;;;10.23;5.13;;;;;;;;;;4834031;29;20420;-81
2022/07/20 05:01:49;;;;;;;6.18;4.63;;;;;;;;;;4835256;29;20036;-81
2022/07/20 05:04:15;;;;;;;7.00;5.00;;;;;;;;;;4836463;29;20453;-80
2022/07/20 05:06:42;;;;;;;8.70;5.35;;;;;;;;;;4834485;29;20416;-80
2022/07/20 05:09:10;;;;;;;8.27;5.18;;;;;;;;;;4834223;29;20034;-82
2022/07/20 05:11:39;;;;;;;6.88;4.55;;;;;;;;;;4834696;29;20458;-81
2022/07/20 05:14:05;;;;;;;8.60;4.85;;;;;;;;;;4834000;29;20396;-80
2022/07/20 05:16:33;;;;;;;8.48;4.90;;;;;;;;;;4836048;29;20478;-80
2022/07/20 05:18:59;;;;;;;8.75;5.20;;;;;;;;;;4832321;29;20029;-79
2022/07/20 05:21:25;;;;;;;6.72;4.88;;;;;;;;;;4848739;29;20033;-80
2022/07/20 05:23:51;;;;;;;7.97;5.13;;;;;;;;;;4831878;29;20034;-79
2022/07/20 05:26:18;;;;;;;12.07;5.03;;;;;;;;;;4848787;29;20078;-79
2022/07/20 05:28:44;;;;;;;7.50;5.10;;;;;;;;;;4848700;29;20041;-79
2022/07/20 05:31:13;;;;;;;9.52;6.00;;;;;;;;;;4831687;29;20022;-79
2022/07/20 05:33:40;;;;;;;10.02;5.35;;;;;;;;;;4831636;29;20033;-80
2022/07/20 05:36:06;;;;;;;12.05;6.15;;;;;;;;;;4848035;29;20153;-80
2022/07/20 05:38:32;;;;;;;9.43;6.20;;;;;;;;;;4848178;29;20034;-80
2022/07/20 05:40:58;;;;;;;8.05;5.75;;;;;;;;;;4831579;29;20066;-80
2022/07/20 05:43:24;;;;;;;10.45;6.47;;;;;;;;;;4831347;29;20074;-80
2022/07/20 05:45:50;;;;;;;9.27;6.28;;;;;;;;;;4831618;29;20033;-80
2022/07/20 05:48:17;;;;;;;12.00;6.00;;;;;;;;;;4831589;29;20121;-80
2022/07/20 05:50:43;;;;;;;10.23;6.00;;;;;;;;;;4831553;29;20022;-80
2022/07/20 05:53:10;;;;;;;11.35;6.32;;;;;;;;;;4848036;29;20030;-80
2022/07/20 05:55:36;;;;;;;7.38;5.75;;;;;;;;;;4848028;29;20074;-80
2022/07/20 05:58:02;;;;;;;11.40;5.70;;;;;;;;;;4848334;29;20485;-80
2022/07/20 06:00:28;;;;;;;8.45;5.47;;;;;;;;;;4830601;29;20049;-79
2022/07/20 06:02:54;;;;;;;14.32;7.00;;;;;;;;;;4827607;29;20117;-78
2022/07/20 06:05:20;;;;;;;11.40;6.60;;;;;;;;;;4828545;29;20449;-79
2022/07/20 06:07:46;;;;;;;12.95;6.50;;;;;;;;;;4844749;29;20104;-80
2022/07/20 06:10:13;;;;;;;10.10;6.50;;;;;;;;;;4845123;29;20381;-80
2022/07/20 06:12:39;;;;;;;13.02;6.55;;;;;;;;;;4828406;29;20098;-80
2022/07/20 06:15:06;;;;;;;12.20;5.90;;;;;;;;;;4836723;29;20038;-81
2022/07/20 06:17:34;;;;;;;11.90;6.75;;;;;;;;;;4848006;29;20029;-80
2022/07/20 06:20:02;;;;;;;11.20;6.68;;;;;;;;;;4828265;29;20033;-81
2022/07/20 06:22:28;;;;;;;10.07;5.72;;;;;;;;;;4844888;29;20026;-80
2022/07/20 06:24:54;;;;;;;14.50;6.60;;;;;;;;;;4844652;29;20041;-80
2022/07/20 06:27:20;;;;;;;13.95;7.50;;;;;;;;;;4828163;29;20481;-80
2022/07/20 06:29:47;;;;;;;12.60;8.75;;;;;;;;;;4827756;29;20154;-80
2022/07/20 06:32:13;;;;;;;17.75;9.38;;;;;;;;;;4830835;29;20038;-81
2022/07/20 06:34:39;;;;;;;16.40;8.50;;;;;;;;;;4827743;29;20038;-80
2022/07/20 06:37:05;;;;;;;18.67;9.88;;;;;;;;;;4844567;29;20038;-81
2022/07/20 06:39:31;;;;;;;14.43;8.60;;;;;;;;;;4829920;29;20065;-81
2022/07/20 06:41:58;;;;;;;15.18;8.52;;;;;;;;;;4829181;29;20066;-82
2022/07/20 06:44:24;;;;;;;12.57;8.10;;;;;;;;;;4827873;29;20050;-81
2022/07/20 06:46:50;;;;;;;14.98;9.63;;;;;;;;;;4827548;29;20038;-80
2022/07/20 06:49:16;;;;;;;15.63;10.23;;;;;;;;;;4827612;29;20049;-80
2022/07/20 06:51:42;;;;;;;15.98;10.30;;;;;;;;;;4827808;29;20038;-80
2022/07/20 06:54:08;;;;;;;18.60;11.65;;;;;;;;;;4844262;29;20063;-82
2022/07/20 06:56:35;;;;;;;13.60;9.10;;;;;;;;;;4844384;29;20504;-82
2022/07/20 06:59:01;;;;;;;17.02;10.18;;;;;;;;;;4828076;29;20038;-83
2022/07/20 07:01:27;;;;;;;17.70;11.55;;;;;;;;;;4844067;29;20061;-82
2022/07/20 07:03:53;;;;;;;15.90;10.25;;;;;;;;;;4844100;29;20453;-81
2022/07/20 07:06:19;;;;;;;13.57;8.32;;;;;;;;;;4827481;29;20022;-81
2022/07/20 07:08:45;;;;;;;21.83;10.15;;;;;;;;;;4843753;29;20037;-80
2022/07/20 07:11:11;;;;;;;10.82;8.85;;;;;;;;;;4827147;29;20030;-80
2022/07/20 07:13:37;;;;;;;11.55;8.48;;;;;;;;;;4827005;29;20458;-82
2022/07/20 07:16:04;;;;;;;20.55;9.85;;;;;;;;;;4843936;29;20018;-79
2022/07/20 07:18:30;;;;;;;14.70;10.25;;;;;;;;;;4827176;29;20030;-80
2022/07/20 07:20:56;;;;;;;13.13;9.82;;;;;;;;;;4827243;29;20442;-80
2022/07/20 07:23:22;;;;;;;16.40;9.85;;;;;;;;;;4843466;29;20042;-80
2022/07/20 07:25:48;;;;;;;12.88;8.35;;;;;;;;;;4829955;29;20055;-82
2022/07/20 07:28:15;;;;;;;17.67;10.95;;;;;;;;;;4826876;29;20042;-79
2022/07/20 07:30:42;;;;;;;15.02;7.57;;;;;;;;;;4829618;29;20091;-81
2022/07/20 07:33:09;;;;;;;14.70;8.20;;;;;;;;;;4845369;29;20030;-80
2022/07/20 07:35:35;;;;;;;12.98;7.85;;;;;;;;;;4843919;29;20026;-77
2022/07/20 07:38:01;;;;;;;13.43;7.93;;;;;;;;;;4827265;29;20026;-78
2022/07/20 07:40:27;;;;;;;11.48;6.32;;;;;;;;;;4828376;29;20038;-80
2022/07/20 07:42:53;;;;;;;16.70;7.22;;;;;;;;;;4830084;29;20049;-81
2022/07/20 07:45:20;;;;;;;13.07;7.43;;;;;;;;;;4832777;29;20030;-80
2022/07/20 07:47:47;;;;;;;14.50;7.85;;;;;;;;;;4829852;29;20022;-77
2022/07/20 07:50:13;;;;;;;20.52;8.50;;;;;;;;;;4827507;29;20412;-77
2022/07/20 07:52:39;;;;;;;19.88;8.77;;;;;;;;;;4831219;29;20070;-82
2022/07/20 07:55:05;;;;;;;19.67;9.75;;;;;;;;;;4834729;29;20416;-82
2022/07/20 07:57:36;;;;;;;11.65;6.65;;;;;;;;;;4835663;29;20063;-82
2022/07/20 08:00:04;;;;;;;12.57;7.20;;;;;;;;;;4832426;29;20121;-82
2022/07/20 08:02:31;;;;;;;15.23;5.90;;;;;;;;;;4832463;29;20033;-83
2022/07/20 08:05:07;;;;;;;9.38;6.00;;;;;;;;;;4839955;29;20042;-82
2022/07/20 08:07:39;;;;;;;9.95;5.93;;;;;;;;;;4834348;29;20030;-81
2022/07/20 08:10:07;;;;;;;6.88;5.88;;;;;;;;;;4839099;29;20477;-82
2022/07/20 08:12:34;;;;;;;10.43;6.22;;;;;;;;;;4832198;29;20062;-80
2022/07/20 08:15:04;;;;;;;11.68;5.75;;;;;;;;;;4837835;29;20124;-83
2022/07/20 08:17:30;;;;;;;8.88;5.03;;;;;;;;;;4832508;29;20060;-78
2022/07/20 08:19:56;;;;;;;8.77;5.80;;;;;;;;;;4826305;29;20021;-79
2022/07/20 08:22:22;;;;;;;12.65;5.47;;;;;;;;;;4826357;29;20030;-77
2022/07/20 08:24:48;;;;;;;9.60;4.60;;;;;;;;;;4841902;29;20045;-79
2022/07/20 08:27:14;;;;;;;10.43;5.47;;;;;;;;;;4842586;29;20030;-77
2022/07/20 08:29:40;;;;;;;11.13;4.55;;;;;;;;;;4842645;29;20086;-79
2022/07/20 08:32:06;;;;;;;9.00;4.80;;;;;;;;;;4842531;29;20029;-78
2022/07/20 08:34:33;;;;;;;15.95;5.47;;;;;;;;;;4825736;29;20038;-81
2022/07/20 08:36:59;;;;;;;9.07;6.25;;;;;;;;;;4832832;29;20310;-79
2022/07/20 08:39:30;;;;;;;10.85;5.30;;;;;;;;;;4839474;29;20046;-80
2022/07/20 08:42:00;;;;;;;9.68;4.93;;;;;;;;;;4851461;29;20464;-79
2022/07/20 08:44:26;;;;;;;9.23;5.00;;;;;;;;;;4828434;29;20045;-77
2022/07/20 08:46:54;;;;;;;9.55;5.18;;;;;;;;;;4825550;29;20038;-77
2022/07/20 08:49:20;;;;;;;9.73;5.95;;;;;;;;;;4845059;29;20085;-77
2022/07/20 08:51:46;;;;;;;7.95;3.92;;;;;;;;;;4844387;29;20034;-80
2022/07/20 08:54:12;;;;;;;7.78;4.15;;;;;;;;;;4826233;29;20029;-81
2022/07/20 08:56:39;;;;;;;8.57;4.43;;;;;;;;;;4827838;29;20053;-78
2022/07/20 08:59:05;;;;;;;8.00;4.88;;;;;;;;;;4845139;29;20592;-82
2022/07/20 09:01:31;;;;;;;5.15;3.80;;;;;;;;;;4826041;29;20053;-80
2022/07/20 09:04:08;;;;;;;19.02;3.55;;;;;;;;;;4825913;29;20046;-82
2022/07/20 09:06:35;;;;;;;7.65;4.45;;;;;;;;;;4825899;29;20070;-80
2022/07/20 09:09:05;;;;;;;9.35;4.78;;;;;;;;;;4825682;29;20030;-81
2022/07/20 09:11:32;;;;;;;8.93;4.45;;;;;;;;;;4825337;29;20056;-79
2022/07/20 09:13:58;;;;;;;9.35;5.35;;;;;;;;;;4826086;29;20042;-80
2022/07/20 09:16:42;;;;;;;8.70;4.82;;;;;;;;;;4842313;29;20061;-78
2022/07/20 09:19:09;;;;;;;9.82;4.65;;;;;;;;;;4842013;29;20030;-79
2022/07/20 09:21:35;;;;;;;7.30;3.90;;;;;;;;;;4842096;29;20434;-77
2022/07/20 09:24:03;;;;;;;6.50;5.60;;;;;;;;;;4841882;29;20050;-78
2022/07/20 09:26:29;;;;;;;9.20;4.25;;;;;;;;;;4841965;29;20034;-78
2022/07/20 09:28:57;;;;;;;9.13;5.18;;;;;;;;;;4845752;29;20033;-80
2022/07/20 09:31:33;;;;;;;7.95;4.85;;;;;;;;;;4828841;29;20041;-82
2022/07/20 09:34:07;;;;;;;10.77;5.07;;;;;;;;;;4833244;29;20097;-80
2022/07/20 09:36:34;;;;;;;8.75;4.40;;;;;;;;;;4834541;29;20033;-79
2022/07/20 09:39:11;;;;;;;5.70;4.07;;;;;;;;;;4848408;29;20030;-80
2022/07/20 09:41:40;;;;;;;6.32;4.32;;;;;;;;;;4848905;29;20420;-80
2022/07/20 09:44:10;;;;;;;8.63;3.58;;;;;;;;;;4832209;29;20042;-80
2022/07/20 09:46:39;;;;;;;9.82;5.15;;;;;;;;;;4835722;29;20030;-79
2022/07/20 09:49:06;;;;;;;8.27;3.75;;;;;;;;;;4832998;29;20030;-79
2022/07/20 09:51:34;;;;;;;8.55;4.40;;;;;;;;;;4833149;29;20452;-80
2022/07/20 09:54:03;;;;;;;4.78;3.33;;;;;;;;;;4830417;29;20099;-80
2022/07/20 09:56:30;;;;;;;8.85;3.88;;;;;;;;;;4830954;29;20388;-80
2022/07/20 09:58:59;;;;;;;6.65;3.83;;;;;;;;;;4831616;29;20037;-80
2022/07/20 10:01:26;;;;;;;7.82;4.10;;;;;;;;;;4828755;29;20046;-80
2022/07/20 10:03:54;;;;;;;6.28;3.95;;;;;;;;;;4830248;29;20513;-80
2022/07/20 10:06:23;;;;;;;7.60;4.10;;;;;;;;;;4829357;29;20031;-79
2022/07/20 10:08:50;;;;;;;5.65;3.50;;;;;;;;;;4827823;29;20397;-79
2022/07/20 10:11:19;;;;;;;6.95;3.40;;;;;;;;;;4828987;29;20057;-80
2022/07/20 10:13:45;;;;;;;6.65;3.78;;;;;;;;;;4829406;29;20428;-80
2022/07/20 10:16:18;;;;;;;6.53;4.00;;;;;;;;;;4828093;29;20393;-80
2022/07/20 10:18:46;;;;;;;9.52;4.00;;;;;;;;;;4828233;29;20039;-80
2022/07/20 10:21:39;;;;;;;4.38;3.53;;;;;;;;;;4829702;29;20042;-80
2022/07/20 10:24:15;;;;;;;8.75;4.57;;;;;;;;;;4810699;29;20042;-80
2022/07/20 10:26:42;;;;;;;5.22;3.90;;;;;;;;;;4830657;29;20390;-80
2022/07/20 10:29:09;;;;;;;5.28;3.88;;;;;;;;;;4825728;29;20035;-77
2022/07/20 10:32:02;;;;;;;4.55;3.40;;;;;;;;;;4827445;29;20027;-79
2022/07/20 10:34:35;;;;;;;4.80;3.95;;;;;;;;;;4791028;29;20485;-76
2022/07/20 10:37:20;;;;;;;6.13;3.85;;;;;;;;;;4828947;29;20070;-76
2022/07/20 10:39:47;;;;;;;6.72;3.38;;;;;;;;;;4825905;29;20038;-76
2022/07/20 10:42:30;;;;;;;6.63;4.93;;;;;;;;;;4838441;29;20037;-79
2022/07/20 10:45:16;;;;;;;4.15;3.55;;;;;;;;;;4828373;29;20042;-76
2022/07/20 10:47:45;;;;;;;4.40;3.58;;;;;;;;;;4829745;29;20146;-76
2022/07/20 10:50:18;;;;;;;5.05;3.20;;;;;;;;;;4829274;29;20052;-76
2022/07/20 10:52:46;;;;;;;6.00;3.65;;;;;;;;;;4825405;29;20033;-77
2022/07/20 10:55:32;;;;;;;5.88;4.00;;;;;;;;;;4825232;29;20041;-77
2022/07/20 10:57:58;;;;;;;7.03;3.40;;;;;;;;;;4825752;29;20030;-78
2022/07/20 11:00:29;;;;;;;6.28;3.70;;;;;;;;;;4825560;29;20042;-80
2022/07/20 11:02:56;;;;;;;3.92;3.30;;;;;;;;;;4825727;29;20026;-79
2022/07/20 11:05:23;;;;;;;6.70;4.28;;;;;;;;;;4825586;29;20041;-80
2022/07/20 11:07:50;;;;;;;4.50;2.83;;;;;;;;;;4825669;29;20076;-76
2022/07/20 11:10:24;;;;;;;5.57;3.20;;;;;;;;;;4823829;29;20042;-79
2022/07/20 11:13:03;;;;;;;5.72;3.53;;;;;;;;;;4824375;29;20068;-80
2022/07/20 11:15:46;;;;;;;8.50;3.78;;;;;;;;;;4825685;29;20041;-80
2022/07/20 11:18:14;;;;;;;4.50;3.25;;;;;;;;;;4824198;29;20041;-79
2022/07/20 11:20:49;;;;;;;5.50;3.42;;;;;;;;;;4825551;29;20030;-80
2022/07/20 11:23:15;;;;;;;5.03;3.53;;;;;;;;;;4825461;29;20034;-76
2022/07/20 11:25:48;;;;;;;7.82;3.10;;;;;;;;;;4824228;29;20030;-82
2022/07/20 11:28:14;;;;;;;7.57;3.13;;;;;;;;;;4825702;29;20022;-80
2022/07/20 11:30:42;;;;;;;3.17;2.85;;;;;;;;;;4825451;29;20083;-82
2022/07/20 11:33:08;;;;;;;5.65;3.15;;;;;;;;;;4825799;29;20022;-82
2022/07/20 11:35:34;;;;;;;4.53;3.83;;;;;;;;;;4825675;29;20034;-80
2022/07/20 11:38:00;;;;;;;5.63;3.55;;;;;;;;;;4825148;29;20026;-80
2022/07/20 11:40:27;;;;;;;7.90;3.30;;;;;;;;;;4825241;29;20035;-79
2022/07/20 11:46:21;;;;;;;8.13;3.50;;;;;;;;;;4831524;29;20064;-80
2022/07/20 11:49:04;;;;;;;7.22;3.33;;;;;;;;;;4831746;29;20026;-82
2022/07/20 11:51:35;;;;;;;5.38;3.42;;;;;;;;;;4831924;29;20387;-82
2022/07/20 11:54:07;;;;;;;4.57;3.17;;;;;;;;;;4833361;29;20030;-83
2022/07/20 11:56:39;;;;;;;4.57;3.88;;;;;;;;;;4829925;29;20038;-82
2022/07/20 11:59:10;;;;;;;6.75;3.90;;;;;;;;;;4830341;29;20027;-81
2022/07/20 12:01:40;;;;;;;7.30;3.67;;;;;;;;;;4831030;29;20057;-80
2022/07/20 12:04:09;;;;;;;4.00;3.42;;;;;;;;;;4831075;29;20046;-79
2022/07/20 12:06:42;;;;;;;6.03;3.53;;;;;;;;;;4829626;29;20401;-79
2022/07/20 12:09:12;;;;;;;7.80;3.75;;;;;;;;;;4829179;29;20382;-79
2022/07/20 12:20:58;;;;;;;5.38;3.65;;;;;;;;;;5082529;24;20061;-80
2022/07/20 12:23:26;;;;;;;5.28;3.60;;;;;;;;;;4860930;29;20037;-80
2022/07/20 12:25:52;;;;;;;4.70;3.03;;;;;;;;;;4861038;29;20092;-80
2022/07/20 12:28:31;;;;;;;6.90;3.75;;;;;;;;;;4861406;29;20499;-81
2022/07/20 12:31:15;;;;;;;5.70;3.33;;;;;;;;;;4861016;29;20037;-81
2022/07/20 12:34:00;;;;;;;5.00;3.33;;;;;;;;;;4860949;29;20034;-81
2022/07/20 12:36:40;;;;;;;5.68;4.18;;;;;;;;;;4843991;29;20045;-81
2022/07/20 12:39:08;;;;;;;7.57;3.90;;;;;;;;;;4861068;29;20036;-82
2022/07/20 12:41:34;;;;;;;5.70;3.20;;;;;;;;;;4844221;29;20029;-78
2022/07/20 12:44:20;;;;;;;7.15;4.10;;;;;;;;;;4860745;29;20025;-81
2022/07/20 12:46:46;;;;;;;6.03;3.83;;;;;;;;;;4844030;29;20499;-78
2022/07/20 12:49:18;;;;;;;4.82;3.80;;;;;;;;;;4860861;29;20485;-81
2022/07/20 12:51:44;;;;;;;6.40;3.75;;;;;;;;;;4861031;29;20064;-81
2022/07/20 12:54:10;;;;;;;6.68;3.92;;;;;;;;;;4843376;29;20029;-81
2022/07/20 12:56:36;;;;;;;6.40;3.90;;;;;;;;;;4860679;29;20068;-78
2022/07/20 12:59:02;;;;;;;4.82;3.85;;;;;;;;;;4860549;29;20026;-78
2022/07/20 13:01:29;;;;;;;5.05;3.83;;;;;;;;;;4844328;29;20037;-80
2022/07/20 13:03:55;;;;;;;5.68;4.00;;;;;;;;;;4828521;29;20042;-81
2022/07/20 13:06:21;;;;;;;4.03;3.50;;;;;;;;;;4843578;29;20059;-79
2022/07/20 13:08:47;;;;;;;5.40;3.22;;;;;;;;;;4860507;29;20025;-81
2022/07/20 13:11:13;;;;;;;6.80;4.40;;;;;;;;;;4862244;29;20532;-83
2022/07/20 13:13:39;;;;;;;5.00;3.90;;;;;;;;;;4847632;29;20034;-81
2022/07/20 13:16:05;;;;;;;4.43;3.53;;;;;;;;;;4864438;29;20057;-78
2022/07/20 13:18:31;;;;;;;7.20;4.05;;;;;;;;;;4872261;29;20056;-78
2022/07/20 13:21:23;;;;;;;5.68;4.20;;;;;;;;;;4872464;29;20037;-82
2022/07/20 13:23:50;;;;;;;8.48;3.55;;;;;;;;;;4855777;29;20042;-80
2022/07/20 13:26:16;;;;;;;6.93;3.75;;;;;;;;;;4875484;29;20048;-80
2022/07/20 13:28:42;;;;;;;6.85;4.30;;;;;;;;;;4868906;29;20113;-81
2022/07/20 13:31:09;;;;;;;5.80;3.80;;;;;;;;;;4848764;29;20516;-82
2022/07/20 13:33:35;;;;;;;5.10;4.03;;;;;;;;;;4864387;29;20029;-83
2022/07/20 13:36:01;;;;;;;8.27;3.72;;;;;;;;;;4847723;29;20531;-84
2022/07/20 13:38:27;;;;;;;6.88;3.70;;;;;;;;;;4864390;29;20074;-82
2022/07/20 13:40:55;;;;;;;5.63;3.85;;;;;;;;;;4863935;29;20033;-81
2022/07/20 13:43:21;;;;;;;8.40;4.20;;;;;;;;;;4863853;29;20037;-81
2022/07/20 13:45:47;;;;;;;6.10;4.00;;;;;;;;;;4864027;29;20392;-81
2022/07/20 13:48:13;;;;;;;5.75;3.38;;;;;;;;;;4863945;29;20026;-80
2022/07/20 13:50:39;;;;;;;5.18;3.60;;;;;;;;;;4863725;29;20037;-81
2022/07/20 13:53:05;;;;;;;7.40;4.20;;;;;;;;;;4863571;29;20022;-82
2022/07/20 13:55:32;;;;;;;6.97;3.47;;;;;;;;;;4847016;29;20484;-81
2022/07/20 13:57:58;;;;;;;5.68;4.50;;;;;;;;;;4863574;29;20060;-82
2022/07/20 14:00:24;;;;;;;7.00;4.18;;;;;;;;;;4863540;29;20033;-81
2022/07/20 14:02:50;;;;;;;8.30;4.57;;;;;;;;;;4863518;29;20022;-83
2022/07/20 14:05:16;;;;;;;4.95;3.40;;;;;;;;;;4863892;29;20034;-84
2022/07/20 14:07:42;;;;;;;8.23;4.72;;;;;;;;;;4847269;29;20461;-84
2022/07/20 14:10:09;;;;;;;6.22;4.22;;;;;;;;;;4847082;29;20147;-83
2022/07/20 14:12:35;;;;;;;5.72;4.28;;;;;;;;;;4863370;29;20028;-83
2022/07/20 14:15:02;;;;;;;7.13;4.40;;;;;;;;;;4846589;29;20093;-82
2022/07/20 14:17:28;;;;;;;5.18;3.55;;;;;;;;;;4846381;29;20041;-82
2022/07/20 14:19:54;;;;;;;9.57;4.55;;;;;;;;;;4852008;29;20052;-82
2022/07/20 14:22:20;;;;;;;5.68;4.90;;;;;;;;;;4849529;29;20061;-83
2022/07/20 14:24:46;;;;;;;6.18;4.38;;;;;;;;;;4847515;29;20124;-83
2022/07/20 14:27:12;;;;;;;10.40;5.00;;;;;;;;;;4846428;29;20030;-83
2022/07/20 14:29:38;;;;;;;5.95;4.35;;;;;;;;;;4863405;29;20031;-83
2022/07/20 14:32:04;;;;;;;7.72;4.50;;;;;;;;;;4863285;29;20377;-80
2022/07/20 14:34:31;;;;;;;8.55;4.40;;;;;;;;;;4863105;29;20026;-83
2022/07/20 14:36:57;;;;;;;4.25;3.78;;;;;;;;;;4863042;29;20029;-82
2022/07/20 14:39:23;;;;;;;5.65;4.28;;;;;;;;;;4862858;29;20100;-80
2022/07/20 14:41:49;;;;;;;7.80;4.68;;;;;;;;;;4867126;29;20081;-83
2022/07/20 14:44:16;;;;;;;7.88;3.88;;;;;;;;;;4846833;29;20517;-83
2022/07/20 14:46:42;;;;;;;8.15;4.32;;;;;;;;;;4863687;29;20026;-83
2022/07/20 14:49:08;;;;;;;6.38;4.78;;;;;;;;;;4847073;29;20181;-83
2022/07/20 14:51:35;;;;;;;7.25;4.95;;;;;;;;;;4848167;29;20052;-80
2022/07/20 14:54:01;;;;;;;7.15;4.97;;;;;;;;;;4848467;29;20630;-83
2022/07/20 14:56:31;;;;;;;7.25;5.55;;;;;;;;;;4845765;29;20069;-83
2022/07/20 14:58:57;;;;;;;5.50;4.70;;;;;;;;;;4862745;29;20582;-83
2022/07/20 15:01:24;;;;;;;8.30;4.75;;;;;;;;;;4845888;29;20030;-82